EmailTwitter


Surface observations / United Kingdom / EGLL (03772)

Regions: Quebec | Canada | USA | Europe | France | UK | Elsewhere
Station
Display
Info & Location for EGLL (03772) | Help decoding METAR

Weather Conditions observed on 2018/12/10 at 02:20 UTC at LONDON/HEATHROW, UK (EGLL)

Sky conditions: partly cloudy.

Temperature: 7.0 Celsius.

Dewpoint: 5.0 Celsius.

Relative Humidity: 87%

Windchill Factor: 4.

Winds: West at 15 km/h or 8 knots.

Mean Sea level Pressure: 102.40 kilopascals.

Horizontal visibility: 6.21 statute miles or 9.94 kilometers.

Height of the Ceiling: 1250 metres ( 4100 feet ).

Coded METAR:

EGLL 100220Z AUTO 27008KT 9999 BKN041 07/05 Q1024 NOSIG=